createdAt,value
2022-11-18T00:01:25.052Z,7.97
2022-11-18T00:03:54.433Z,7.40
2022-11-18T00:06:24.178Z,8.20
2022-11-18T00:08:52.906Z,8.53
2022-11-18T00:11:40.677Z,9.07
2022-11-18T00:14:23.139Z,8.90
2022-11-18T00:16:53.580Z,8.40
2022-11-18T00:19:24.265Z,9.07
2022-11-18T00:21:52.683Z,8.90
2022-11-18T00:24:21.670Z,9.33
2022-11-18T00:26:49.832Z,9.33
2022-11-18T00:29:18.593Z,9.30
2022-11-18T00:31:47.307Z,9.70
2022-11-18T00:34:17.356Z,9.47
2022-11-18T00:36:47.891Z,9.87
2022-11-18T00:39:17.656Z,9.80
2022-11-18T00:42:03.713Z,10.73
2022-11-18T00:44:32.210Z,8.33
2022-11-18T00:47:00.250Z,9.70
2022-11-18T00:49:28.345Z,9.97
2022-11-18T00:51:57.892Z,10.50
2022-11-18T00:54:25.952Z,10.50
2022-11-18T00:56:54.051Z,10.60
2022-11-18T00:59:22.086Z,10.77
2022-11-18T01:01:50.194Z,10.70
2022-11-18T01:04:18.609Z,11.03
2022-11-18T01:06:46.635Z,11.00
2022-11-18T01:09:16.439Z,10.80
2022-11-18T01:12:10.572Z,11.07
2022-11-18T01:14:38.716Z,11.70
2022-11-18T01:17:06.718Z,11.97
2022-11-18T01:19:34.699Z,12.40
2022-11-18T01:22:03.396Z,11.20
2022-11-18T01:24:34.283Z,11.53
2022-11-18T01:27:02.799Z,11.07
2022-11-18T01:29:31.253Z,11.13
2022-11-18T01:32:23.279Z,12.03
2022-11-18T01:34:47.230Z,11.97
2022-11-18T01:37:15.375Z,12.63
2022-11-18T01:39:44.747Z,12.03
2022-11-18T01:42:16.639Z,13.03
2022-11-18T01:45:09.653Z,11.80
2022-11-18T01:47:42.073Z,10.93
2022-11-18T01:50:11.545Z,12.13
2022-11-18T01:52:40.157Z,12.80
2022-11-18T01:55:14.434Z,13.23
2022-11-18T01:57:43.286Z,12.47
2022-11-18T02:00:12.789Z,12.43
2022-11-18T02:02:40.774Z,12.60
2022-11-18T02:05:11.849Z,12.17
2022-11-18T02:07:43.999Z,12.40
2022-11-18T02:10:20.768Z,12.20
2022-11-18T02:12:49.274Z,12.77
2022-11-18T02:15:18.512Z,12.90
2022-11-18T02:17:53.806Z,11.43
2022-11-18T02:20:36.578Z,12.27
2022-11-18T02:23:54.719Z,11.83
2022-11-18T02:27:01.912Z,12.17
2022-11-18T02:29:37.405Z,13.23
2022-11-18T02:32:12.342Z,12.87
2022-11-18T02:34:46.006Z,11.77
2022-11-18T02:37:19.032Z,11.83
2022-11-18T02:39:53.215Z,12.20
2022-11-18T02:42:23.923Z,12.53
2022-11-18T02:44:57.658Z,13.07
2022-11-18T02:47:28.416Z,12.43
2022-11-18T02:49:59.080Z,13.23
2022-11-18T02:52:28.878Z,13.30
2022-11-18T02:54:58.859Z,13.83
2022-11-18T02:57:30.166Z,12.27
2022-11-18T02:59:59.495Z,14.83
2022-11-18T03:02:27.551Z,14.80
2022-11-18T03:04:59.312Z,12.37
2022-11-18T03:07:31.151Z,13.83
2022-11-18T03:10:01.038Z,14.63
2022-11-18T03:12:38.401Z,15.77
2022-11-18T03:15:17.365Z,14.87
2022-11-18T03:17:55.977Z,13.80
2022-11-18T03:20:27.272Z,14.47
2022-11-18T03:23:01.074Z,15.27
2022-11-18T03:25:35.849Z,14.20
2022-11-18T03:28:10.502Z,15.37
2022-11-18T03:30:57.690Z,15.87
2022-11-18T03:33:32.512Z,14.53
2022-11-18T03:36:05.158Z,16.10
2022-11-18T03:38:37.740Z,15.57
2022-11-18T03:41:10.459Z,16.53
2022-11-18T03:43:42.384Z,17.07
2022-11-18T03:46:16.765Z,15.90
2022-11-18T03:48:49.517Z,17.40
2022-11-18T03:51:22.183Z,17.53
2022-11-18T03:53:56.236Z,17.43
2022-11-18T03:56:27.594Z,17.67
2022-11-18T03:58:59.964Z,16.37
2022-11-18T04:01:35.416Z,16.07
2022-11-18T04:04:03.777Z,17.43
2022-11-18T04:06:37.927Z,16.47
2022-11-18T04:09:10.715Z,17.87
2022-11-18T04:12:02.547Z,17.80
2022-11-18T04:14:31.125Z,17.80
2022-11-18T04:17:00.549Z,18.57
2022-11-18T04:19:29.462Z,17.63
2022-11-18T04:21:57.553Z,18.03
2022-11-18T04:24:25.690Z,18.10
2022-11-18T04:26:53.754Z,17.87
2022-11-18T04:29:21.761Z,17.97
2022-11-18T04:31:49.836Z,17.90
2022-11-18T04:34:19.172Z,15.93
2022-11-18T04:36:47.167Z,18.00
2022-11-18T04:39:15.741Z,17.83
2022-11-18T04:41:59.149Z,17.47
2022-11-18T04:44:29.223Z,17.03
2022-11-18T04:46:58.731Z,16.97
2022-11-18T04:49:28.963Z,16.47
2022-11-18T04:51:57.728Z,17.67
2022-11-18T04:54:27.534Z,16.30
2022-11-18T04:56:56.433Z,16.57
2022-11-18T04:59:26.676Z,16.50
2022-11-18T05:01:55.061Z,16.03
2022-11-18T05:04:25.546Z,18.00
2022-11-18T05:06:55.211Z,17.47
2022-11-18T05:09:28.632Z,16.40
2022-11-18T05:12:17.234Z,15.07
2022-11-18T05:14:49.664Z,17.63
2022-11-18T05:17:19.333Z,16.03
2022-11-18T05:19:47.401Z,17.07
2022-11-18T05:22:17.729Z,17.10
2022-11-18T05:24:45.783Z,17.00
2022-11-18T05:27:13.976Z,15.70
2022-11-18T05:29:41.957Z,17.63
2022-11-18T05:32:10.452Z,16.13
2022-11-18T05:34:38.571Z,16.63
2022-11-18T05:37:06.543Z,15.87
2022-11-18T05:39:36.115Z,17.43
2022-11-18T05:42:21.812Z,17.80
2022-11-18T05:44:56.171Z,17.57
2022-11-18T05:47:26.210Z,18.33
2022-11-18T05:49:54.262Z,17.93
2022-11-18T05:52:22.228Z,18.20
2022-11-18T05:54:52.134Z,19.20
2022-11-18T05:57:20.126Z,18.50
2022-11-18T05:59:48.112Z,19.60
2022-11-18T06:02:19.454Z,19.67
2022-11-18T06:04:50.461Z,20.20
2022-11-18T06:07:21.324Z,19.57
2022-11-18T06:09:53.235Z,20.13
2022-11-18T06:12:24.844Z,18.77
2022-11-18T06:14:59.084Z,19.90
2022-11-18T06:17:31.454Z,19.63
2022-11-18T06:20:00.570Z,21.20
2022-11-18T06:22:29.204Z,21.37
2022-11-18T06:24:58.650Z,20.30
2022-11-18T06:27:26.799Z,20.43
2022-11-18T06:29:54.833Z,20.37
2022-11-18T06:32:22.934Z,19.33
2022-11-18T06:34:50.906Z,20.57
2022-11-18T06:37:21.585Z,19.33
2022-11-18T06:39:49.583Z,19.37
2022-11-18T06:42:32.844Z,18.07
2022-11-18T06:45:02.018Z,20.13
2022-11-18T06:47:30.384Z,18.47
2022-11-18T06:49:58.410Z,18.20
2022-11-18T06:52:26.498Z,20.03
2022-11-18T06:54:54.551Z,18.80
2022-11-18T06:57:23.905Z,19.30
2022-11-18T06:59:51.992Z,18.80
2022-11-18T07:02:20.035Z,17.47
2022-11-18T07:04:48.044Z,18.20
2022-11-18T07:07:17.314Z,17.97
2022-11-18T07:09:45.706Z,18.10
2022-11-18T07:12:13.728Z,19.30
2022-11-18T07:14:43.125Z,17.63
2022-11-18T07:17:11.134Z,17.60
2022-11-18T07:19:40.631Z,16.47
2022-11-18T07:22:08.847Z,17.03
2022-11-18T07:24:37.940Z,17.03
2022-11-18T07:27:08.161Z,17.07
2022-11-18T07:29:36.206Z,13.17
2022-11-18T07:32:06.006Z,16.93
2022-11-18T07:34:34.011Z,17.63
2022-11-18T07:37:02.193Z,19.50
2022-11-18T07:47:26.204Z,16.47
2022-11-18T07:49:56.302Z,20.50
2022-11-18T07:52:26.408Z,18.40
2022-11-18T07:57:56.036Z,16.80
2022-11-18T08:00:24.148Z,17.37
2022-11-18T08:02:53.607Z,18.67
2022-11-18T08:05:23.539Z,17.40
2022-11-18T08:07:51.667Z,18.33
2022-11-18T08:10:19.830Z,17.43
2022-11-18T08:12:47.902Z,18.33
2022-11-18T08:15:16.000Z,18.13
2022-11-18T08:17:44.010Z,16.93
2022-11-18T08:20:13.997Z,17.37
2022-11-18T08:22:44.005Z,16.47
2022-11-18T08:25:12.239Z,17.87
2022-11-18T08:27:40.232Z,17.77
2022-11-18T08:30:09.379Z,18.30
2022-11-18T08:32:37.392Z,16.90
2022-11-18T08:35:10.781Z,17.20
2022-11-18T08:37:40.576Z,16.97
2022-11-18T08:40:09.562Z,17.70
2022-11-18T08:42:38.562Z,16.33
2022-11-18T08:45:08.382Z,15.77
2022-11-18T08:47:36.806Z,15.33
2022-11-18T08:50:05.134Z,16.93
2022-11-18T08:52:33.223Z,16.60
2022-11-18T08:55:03.348Z,16.00
2022-11-18T08:57:31.661Z,16.87
2022-11-18T08:59:59.732Z,14.37
2022-11-18T09:02:27.809Z,15.37
2022-11-18T09:04:55.793Z,15.50
2022-11-18T09:07:23.997Z,16.63
2022-11-18T09:09:52.157Z,17.37
2022-11-18T09:12:21.564Z,16.90
2022-11-18T09:17:37.809Z,16.00
2022-11-18T09:20:06.676Z,16.83
2022-11-18T09:22:37.327Z,19.10
2022-11-18T09:25:05.807Z,16.73
2022-11-18T09:27:35.238Z,15.93
2022-11-18T09:30:03.377Z,15.63
2022-11-18T09:32:31.446Z,15.03
2022-11-18T09:34:59.450Z,15.43
2022-11-18T09:37:27.511Z,14.00
2022-11-18T09:39:55.528Z,15.73
2022-11-18T09:42:52.501Z,14.23
2022-11-18T09:45:25.332Z,15.67
2022-11-18T09:47:58.878Z,15.40
2022-11-18T09:50:49.448Z,15.70
2022-11-18T09:53:21.332Z,15.20
2022-11-18T09:55:50.638Z,15.23
2022-11-18T09:58:23.865Z,16.17
2022-11-18T10:00:51.895Z,14.03
2022-11-18T10:03:28.045Z,15.10
2022-11-18T10:06:02.482Z,15.97
2022-11-18T10:08:37.680Z,15.53
2022-11-18T10:11:12.088Z,14.83
2022-11-18T10:13:55.096Z,15.97
2022-11-18T10:16:32.479Z,16.27
2022-11-18T10:19:10.617Z,15.30
2022-11-18T10:21:47.914Z,16.07
2022-11-18T10:24:20.735Z,15.87
2022-11-18T10:26:49.144Z,16.07
2022-11-18T10:29:18.520Z,15.03
2022-11-18T10:32:04.745Z,14.80
2022-11-18T10:34:34.358Z,15.60
2022-11-18T10:37:04.107Z,12.90
2022-11-18T10:39:32.532Z,15.00
2022-11-18T10:42:06.541Z,14.67
2022-11-18T10:44:39.367Z,14.67
2022-11-18T10:47:23.193Z,16.20
2022-11-18T10:49:51.965Z,15.03
2022-11-18T10:52:20.759Z,16.57
2022-11-18T10:55:19.429Z,16.03
2022-11-18T10:57:48.159Z,15.27
2022-11-18T11:00:41.281Z,14.93
2022-11-18T11:03:37.039Z,13.77
2022-11-18T11:06:30.006Z,14.53
2022-11-18T11:09:00.838Z,15.13
2022-11-18T11:11:32.007Z,14.77
2022-11-18T11:14:08.559Z,13.57
2022-11-18T11:16:46.873Z,13.03
2022-11-18T11:19:18.537Z,14.30
2022-11-18T11:21:46.811Z,12.73
2022-11-18T11:24:15.133Z,13.27
2022-11-18T11:30:06.034Z,13.47
2022-11-18T11:32:54.134Z,12.57
2022-11-18T11:35:27.078Z,12.80
2022-11-18T11:37:59.236Z,13.43
2022-11-18T11:40:34.823Z,12.20
2022-11-18T11:43:23.902Z,11.20
2022-11-18T11:46:10.423Z,11.73
2022-11-18T11:48:54.394Z,11.80
2022-11-18T11:51:32.439Z,13.17
2022-11-18T11:54:32.102Z,10.60
2022-11-18T11:57:05.786Z,12.43
2022-11-18T11:59:40.534Z,12.90
2022-11-18T12:02:50.577Z,12.07
2022-11-18T12:05:26.917Z,13.37
2022-11-18T12:07:58.666Z,13.47
2022-11-18T12:10:37.136Z,12.43
2022-11-18T12:13:15.463Z,11.70
2022-11-18T12:15:59.483Z,12.03
2022-11-18T12:18:34.376Z,12.27
2022-11-18T12:21:04.124Z,12.67
2022-11-18T12:23:34.262Z,11.60
2022-11-18T12:26:05.227Z,12.27
2022-11-18T12:28:36.711Z,11.90
2022-11-18T12:31:33.471Z,12.27
2022-11-18T12:34:07.873Z,11.60
2022-11-18T12:36:39.380Z,11.43
2022-11-18T12:39:49.430Z,11.10
2022-11-18T12:42:55.420Z,12.13
2022-11-18T12:45:50.107Z,12.73
2022-11-18T12:48:39.629Z,12.77
2022-11-18T12:51:41.520Z,11.13
2022-11-18T12:54:25.529Z,12.23
2022-11-18T12:56:54.148Z,11.97
2022-11-18T12:59:33.042Z,12.17
2022-11-18T13:02:06.956Z,12.27
2022-11-18T13:04:37.808Z,11.20
2022-11-18T13:07:34.255Z,10.53
2022-11-18T13:10:12.818Z,12.27
2022-11-18T13:12:45.261Z,12.87
2022-11-18T13:15:31.487Z,12.93
2022-11-18T13:18:09.292Z,11.93
2022-11-18T13:20:39.612Z,12.77
2022-11-18T13:23:46.196Z,12.93
2022-11-18T13:26:20.552Z,11.03
2022-11-18T13:29:15.153Z,13.00
2022-11-18T13:31:50.629Z,13.30
2022-11-18T13:34:21.342Z,13.90
2022-11-18T13:36:51.516Z,14.00
2022-11-18T13:39:24.226Z,12.50
2022-11-18T13:42:03.159Z,12.40
2022-11-18T13:44:33.243Z,13.60
2022-11-18T13:47:07.862Z,12.80
2022-11-18T13:49:50.345Z,13.67
2022-11-18T13:52:24.070Z,13.03
2022-11-18T13:54:55.613Z,12.27
2022-11-18T13:57:26.608Z,13.37
2022-11-18T13:59:55.702Z,11.67
2022-11-18T14:02:24.337Z,12.87
2022-11-18T14:04:55.663Z,12.67
2022-11-18T14:07:30.309Z,11.90
2022-11-18T14:10:02.086Z,11.13
2022-11-18T14:12:32.560Z,11.07
2022-11-18T14:15:22.040Z,7.77
2022-11-18T14:17:56.335Z,12.43
2022-11-18T14:20:25.328Z,14.90
2022-11-18T14:22:56.052Z,12.73
2022-11-18T14:25:29.144Z,11.17
2022-11-18T14:27:58.821Z,12.23
2022-11-18T14:30:35.607Z,10.90
2022-11-18T14:33:15.135Z,8.50
2022-11-18T14:35:45.586Z,7.67
2022-11-18T14:38:36.725Z,10.07
2022-11-18T14:41:08.420Z,10.10
2022-11-18T14:43:36.587Z,9.17
2022-11-18T14:46:07.014Z,9.77
2022-11-18T14:48:35.213Z,9.67
2022-11-18T14:51:03.280Z,10.37
2022-11-18T14:53:31.312Z,9.17
2022-11-18T14:56:00.892Z,9.00
2022-11-18T14:58:30.320Z,9.43
2022-11-18T15:00:58.391Z,7.80
2022-11-18T15:03:26.570Z,7.93
2022-11-18T15:05:54.678Z,7.23
2022-11-18T15:08:22.691Z,6.47
2022-11-18T15:10:50.774Z,7.20
2022-11-18T15:13:18.826Z,6.07
2022-11-18T15:15:48.267Z,5.83
2022-11-18T15:18:16.261Z,5.43
2022-11-18T15:20:44.324Z,6.40
2022-11-18T15:23:12.315Z,4.33
2022-11-18T15:25:40.493Z,6.30
2022-11-18T15:28:10.964Z,7.00
2022-11-18T15:30:39.187Z,5.63
2022-11-18T15:33:08.628Z,6.53
2022-11-18T15:35:36.677Z,6.43
2022-11-18T15:38:04.793Z,6.33
2022-11-18T15:40:33.082Z,7.40
2022-11-18T15:43:01.080Z,8.93
2022-11-18T15:45:29.103Z,7.13
2022-11-18T15:47:57.606Z,7.57
2022-11-18T15:50:27.016Z,7.57
2022-11-18T15:52:55.874Z,7.43
2022-11-18T15:55:23.896Z,9.80
2022-11-18T15:57:52.066Z,8.63
2022-11-18T16:00:20.603Z,9.43
2022-11-18T16:02:48.646Z,8.43
2022-11-18T16:05:16.822Z,9.70
2022-11-18T16:07:49.124Z,10.80
2022-11-18T16:10:36.967Z,8.30
2022-11-18T16:13:05.046Z,6.77
2022-11-18T16:15:44.680Z,4.90
2022-11-18T16:18:12.747Z,4.70
2022-11-18T16:20:40.792Z,5.63
2022-11-18T16:23:10.220Z,6.73
2022-11-18T16:25:43.755Z,6.77
2022-11-18T16:28:11.840Z,6.27
2022-11-18T16:30:57.577Z,4.63
2022-11-18T16:33:25.621Z,5.17
2022-11-18T16:35:54.397Z,4.23
2022-11-18T16:38:23.835Z,4.30
2022-11-18T16:40:56.530Z,4.40
2022-11-18T16:43:24.848Z,4.80
2022-11-18T16:45:53.798Z,4.07
2022-11-18T16:48:22.478Z,5.43
2022-11-18T16:51:01.080Z,4.03
2022-11-18T16:53:30.462Z,4.60
2022-11-18T16:56:04.301Z,4.13
2022-11-18T16:58:32.350Z,5.40
2022-11-18T17:01:18.507Z,4.63
2022-11-18T17:03:48.053Z,3.80
2022-11-18T17:06:16.139Z,4.83
2022-11-18T17:08:45.884Z,5.33
2022-11-18T17:11:14.026Z,8.37
2022-11-18T17:13:42.714Z,5.63
2022-11-18T17:16:12.741Z,4.53
2022-11-18T17:18:40.959Z,4.57
2022-11-18T17:21:11.028Z,5.00
2022-11-18T17:23:39.862Z,4.50
2022-11-18T17:26:09.747Z,4.13
2022-11-18T17:29:07.887Z,4.00
2022-11-18T17:31:35.903Z,4.53
2022-11-18T17:34:05.525Z,3.83
2022-11-18T17:36:33.655Z,3.23
2022-11-18T17:39:02.083Z,4.30
2022-11-18T17:41:49.119Z,3.10
2022-11-18T17:44:19.308Z,3.90
2022-11-18T17:46:47.527Z,3.50
2022-11-18T17:49:17.913Z,3.63
2022-11-18T17:51:47.017Z,3.37
2022-11-18T17:54:15.357Z,3.23
2022-11-18T17:56:44.986Z,3.47
2022-11-18T17:59:14.504Z,3.33
2022-11-18T18:01:42.646Z,3.93
2022-11-18T18:04:10.774Z,5.20
2022-11-18T18:06:38.846Z,4.90
2022-11-18T18:09:06.893Z,4.93
2022-11-18T18:11:34.914Z,4.80
2022-11-18T18:14:15.480Z,3.83
2022-11-18T18:16:45.918Z,3.90
2022-11-18T18:19:15.766Z,3.97
2022-11-18T18:21:43.732Z,3.90
2022-11-18T18:24:12.121Z,4.40
2022-11-18T18:26:40.206Z,4.10
2022-11-18T18:29:09.616Z,3.67
2022-11-18T18:31:38.471Z,3.87
2022-11-18T18:34:06.526Z,4.53
2022-11-18T18:36:34.677Z,4.40
2022-11-18T18:39:02.836Z,4.80
2022-11-18T18:41:32.364Z,4.70
2022-11-18T18:44:01.078Z,5.00
2022-11-18T18:46:31.369Z,4.50
2022-11-18T18:49:05.137Z,3.97
2022-11-18T18:51:36.880Z,3.83
2022-11-18T18:54:05.382Z,3.60
2022-11-18T18:56:34.093Z,4.00
2022-11-18T18:59:02.354Z,4.13
2022-11-18T19:01:33.459Z,3.70
2022-11-18T19:04:03.233Z,3.90
2022-11-18T19:09:21.684Z,3.90
2022-11-18T19:12:07.291Z,4.10
2022-11-18T19:14:35.648Z,3.50
2022-11-18T19:17:10.592Z,3.67
2022-11-18T19:19:57.489Z,3.80
2022-11-18T19:22:25.963Z,3.40
2022-11-18T19:24:54.602Z,3.17
2022-11-18T19:27:23.219Z,3.80
2022-11-18T19:29:51.232Z,3.80
2022-11-18T19:32:21.010Z,4.20
2022-11-18T19:34:49.088Z,4.33
2022-11-18T19:37:17.130Z,5.53
2022-11-18T19:39:45.134Z,5.40
2022-11-18T19:42:13.138Z,5.77
2022-11-18T19:44:41.163Z,5.07
2022-11-18T19:47:09.259Z,4.30
2022-11-18T19:49:38.675Z,3.60
2022-11-18T19:52:06.674Z,3.80
2022-11-18T19:54:34.728Z,3.90
2022-11-18T19:57:03.926Z,3.50
2022-11-18T19:59:32.075Z,3.97
2022-11-18T20:02:00.145Z,3.90
2022-11-18T20:04:28.251Z,4.50
2022-11-18T20:06:57.905Z,5.00
2022-11-18T20:09:26.430Z,4.27
2022-11-18T20:11:55.629Z,4.73
2022-11-18T20:14:23.739Z,4.40
2022-11-18T20:16:52.630Z,4.17
2022-11-18T20:19:21.053Z,3.90
2022-11-18T20:21:49.501Z,4.10
2022-11-18T20:24:20.149Z,3.80
2022-11-18T20:26:48.724Z,3.73
2022-11-18T20:29:17.364Z,3.77
2022-11-18T20:31:45.528Z,3.90
2022-11-18T20:34:14.949Z,4.13
2022-11-18T20:36:43.289Z,4.47
2022-11-18T20:39:14.559Z,4.70
2022-11-18T20:42:04.466Z,3.87
2022-11-18T20:44:32.525Z,4.03
2022-11-18T20:47:00.661Z,4.23
2022-11-18T20:49:28.725Z,3.40
2022-11-18T20:51:56.707Z,3.90
2022-11-18T20:54:24.669Z,4.70
2022-11-18T20:56:54.603Z,4.83
2022-11-18T20:59:22.751Z,10.43
2022-11-18T21:01:50.757Z,14.00
2022-11-18T21:04:18.838Z,16.80
2022-11-18T21:06:47.394Z,14.27
2022-11-18T21:09:16.870Z,23.07
2022-11-18T21:11:45.273Z,8.83
2022-11-18T21:14:24.509Z,21.60
2022-11-18T21:16:55.101Z,17.97
2022-11-18T21:19:23.652Z,18.90
2022-11-18T21:21:52.782Z,19.47
2022-11-18T21:24:22.947Z,14.57
2022-11-18T21:26:54.476Z,14.43
2022-11-18T21:29:27.259Z,11.73
2022-11-18T21:31:56.034Z,8.67
2022-11-18T21:34:24.379Z,8.67
2022-11-18T21:36:54.839Z,6.90
2022-11-18T21:39:24.100Z,4.00
2022-11-18T21:41:57.003Z,4.67
2022-11-18T21:44:28.180Z,4.67
2022-11-18T21:46:56.608Z,3.93
2022-11-18T21:49:24.584Z,3.93
2022-11-18T21:51:52.636Z,4.10
2022-11-18T21:54:20.633Z,3.97
2022-11-18T21:56:49.319Z,4.23
2022-11-18T21:59:17.625Z,3.90
2022-11-18T22:01:47.163Z,3.97
2022-11-18T22:04:35.755Z,4.03
2022-11-18T22:07:05.225Z,3.87
2022-11-18T22:09:36.782Z,3.87
2022-11-18T22:12:06.841Z,3.60
2022-11-18T22:14:34.950Z,3.70
2022-11-18T22:17:05.273Z,3.63
2022-11-18T22:19:33.270Z,3.73
2022-11-18T22:22:01.621Z,4.03
2022-11-18T22:24:29.878Z,3.87
2022-11-18T22:26:58.462Z,3.80
2022-11-18T22:29:26.478Z,3.97
2022-11-18T22:31:54.613Z,3.77
2022-11-18T22:34:23.979Z,6.30
2022-11-18T22:36:51.973Z,7.17
2022-11-18T22:39:20.102Z,7.47
2022-11-18T22:42:05.731Z,7.73
2022-11-18T22:44:33.791Z,5.90
2022-11-18T22:47:01.854Z,6.47
2022-11-18T22:49:31.280Z,6.63
2022-11-18T22:51:59.321Z,6.13
2022-11-18T22:54:42.690Z,6.43
2022-11-18T22:57:10.836Z,5.97
2022-11-18T22:59:38.804Z,6.60
2022-11-18T23:02:06.934Z,7.10
2022-11-18T23:04:36.288Z,8.40
2022-11-18T23:07:04.727Z,7.93
2022-11-18T23:09:32.895Z,8.43
2022-11-18T23:12:18.463Z,8.97
2022-11-18T23:14:46.649Z,9.17
2022-11-18T23:17:15.890Z,8.37
2022-11-18T23:19:46.930Z,8.07
2022-11-18T23:22:15.256Z,8.53
2022-11-18T23:24:43.242Z,7.33
2022-11-18T23:27:11.327Z,8.30
2022-11-18T23:29:39.434Z,8.33
2022-11-18T23:32:07.514Z,6.53
2022-11-18T23:34:35.560Z,7.00
2022-11-18T23:37:05.154Z,6.07
2022-11-18T23:39:33.173Z,6.15
2022-11-18T23:42:01.231Z,6.20
2022-11-18T23:44:49.167Z,5.80
2022-11-18T23:47:17.224Z,5.27
2022-11-18T23:49:45.363Z,4.47
2022-11-18T23:52:14.967Z,4.17
2022-11-18T23:54:43.062Z,4.37
2022-11-18T23:57:11.216Z,4.07
2022-11-18T23:59:39.263Z,4.53
